Time;durP1;ratioP1;P1;durP2;ratioP2;P2;SDS_P1;SDS_P2;PMS_P1;PMS_P2;Temp;Humidity;BMP_temperature;BMP_pressure;BME280_temperature;BME280_humidity;BME280_pressure;Samples;Min_cycle;Max_cycle;Signal;HPM_P1;HPM_P2
2024/02/10 00:01:09;;;;;;;10.27;4.13;;;11.10;99.90;;;;;;4897702;29;37599;-77
2024/02/10 00:03:35;;;;;;;13.23;4.30;;;11.10;99.90;;;;;;4891458;29;38290;-76
2024/02/10 00:06:03;;;;;;;13.67;4.50;;;11.10;99.90;;;;;;4904325;29;37635;-77
2024/02/10 00:08:29;;;;;;;12.77;5.13;;;11.00;99.90;;;;;;4890382;29;36571;-77
2024/02/10 00:10:55;;;;;;;12.27;4.10;;;11.10;99.90;;;;;;4891455;29;38442;-76
2024/02/10 00:13:22;;;;;;;18.90;4.93;;;11.10;99.90;;;;;;4886081;29;38270;-76
2024/02/10 00:15:50;;;;;;;12.27;4.70;;;11.10;99.90;;;;;;4906933;29;38572;-78
2024/02/10 00:18:18;;;;;;;10.77;3.90;;;11.10;99.90;;;;;;4892863;29;36190;-76
2024/02/10 00:20:45;;;;;;;9.83;4.20;;;11.10;99.90;;;;;;4892714;29;37895;-78
2024/02/10 00:23:13;;;;;;;10.83;4.03;;;11.10;99.90;;;;;;4890784;29;37343;-77
2024/02/10 00:25:41;;;;;;;12.25;4.07;;;11.10;99.90;;;;;;4888563;29;37288;-76
2024/02/10 00:28:10;;;;;;;12.53;3.97;;;11.20;99.90;;;;;;4889579;29;36387;-77
2024/02/10 00:30:37;;;;;;;9.63;3.63;;;11.20;99.90;;;;;;4895224;29;38558;-77
2024/02/10 00:33:07;;;;;;;8.77;3.42;;;11.30;99.90;;;;;;4900536;29;38801;-77
2024/02/10 00:35:33;;;;;;;7.57;2.88;;;11.40;99.90;;;;;;4913556;29;38485;-76
2024/02/10 00:38:00;;;;;;;5.45;2.47;;;11.50;99.90;;;;;;4895501;29;36185;-76
2024/02/10 00:40:26;;;;;;;7.20;2.55;;;11.50;99.90;;;;;;4895536;29;38939;-78
2024/02/10 00:42:53;;;;;;;8.95;4.10;;;11.50;99.90;;;;;;4902663;29;39088;-78
2024/02/10 00:45:20;;;;;;;6.60;2.30;;;11.50;99.90;;;;;;4900179;29;37307;-77
2024/02/10 00:47:46;;;;;;;8.60;2.40;;;11.50;99.90;;;;;;4897870;29;37803;-76
2024/02/10 00:50:12;;;;;;;10.83;3.13;;;11.60;99.90;;;;;;4902746;29;38695;-77
2024/02/10 00:52:46;;;;;;;6.13;2.00;;;11.60;99.90;;;;;;4902159;29;38091;-77
2024/02/10 00:55:13;;;;;;;5.73;2.07;;;11.50;99.90;;;;;;4909232;29;36857;-77
2024/02/10 00:57:40;;;;;;;5.70;2.27;;;11.60;99.90;;;;;;4914305;29;36065;-76
2024/02/10 01:00:11;;;;;;;6.60;1.90;;;11.60;99.90;;;;;;4904850;29;39418;-77
2024/02/10 01:02:37;;;;;;;4.38;1.67;;;11.60;99.90;;;;;;4896863;29;38626;-78
2024/02/10 01:05:08;;;;;;;5.78;2.25;;;11.60;99.90;;;;;;4895355;29;37380;-78
2024/02/10 01:07:35;;;;;;;7.57;1.80;;;11.60;99.90;;;;;;4888427;29;47505;-76
2024/02/10 01:10:02;;;;;;;6.13;2.00;;;11.50;99.90;;;;;;4897236;29;39654;-77
2024/02/10 01:12:28;;;;;;;5.37;1.63;;;11.50;99.90;;;;;;4894973;29;40095;-78
2024/02/10 01:14:57;;;;;;;8.00;1.70;;;11.60;99.90;;;;;;4895448;29;36710;-79
2024/02/10 01:17:24;;;;;;;5.43;2.60;;;11.60;99.90;;;;;;4895161;29;37089;-78
2024/02/10 01:19:51;;;;;;;6.18;2.35;;;11.60;99.90;;;;;;4897867;29;39938;-78
2024/02/10 01:22:28;;;;;;;11.60;1.88;;;11.60;99.90;;;;;;4899712;29;37223;-77
2024/02/10 01:24:58;;;;;;;5.95;2.17;;;11.60;99.90;;;;;;4896945;29;36892;-78
2024/02/10 01:27:26;;;;;;;4.05;1.80;;;11.60;99.90;;;;;;4900271;29;36995;-77
2024/02/10 01:29:53;;;;;;;6.50;1.67;;;11.60;99.90;;;;;;4902244;29;38854;-77
2024/02/10 01:32:20;;;;;;;4.73;1.60;;;11.50;99.90;;;;;;4904105;29;38582;-77
2024/02/10 01:34:48;;;;;;;4.40;1.70;;;11.50;99.90;;;;;;4904577;29;36927;-77
2024/02/10 01:37:19;;;;;;;9.27;2.10;;;11.40;99.90;;;;;;4901575;29;38227;-76
2024/02/10 01:39:47;;;;;;;5.43;2.10;;;11.40;99.90;;;;;;4902333;29;38138;-77
2024/02/10 01:42:20;;;;;;;8.70;2.20;;;11.30;99.90;;;;;;4903632;29;38117;-77
2024/02/10 01:44:46;;;;;;;9.77;2.50;;;11.40;99.90;;;;;;4902617;29;37024;-78
2024/02/10 01:47:15;;;;;;;8.90;2.50;;;11.40;99.90;;;;;;4903058;29;37465;-77
2024/02/10 01:49:42;;;;;;;6.07;2.20;;;11.30;99.90;;;;;;4902860;29;37978;-77
2024/02/10 01:52:08;;;;;;;8.90;2.20;;;11.30;99.90;;;;;;4898911;29;38144;-76
2024/02/10 01:54:39;;;;;;;6.37;2.33;;;11.30;99.90;;;;;;4901638;29;37886;-77
2024/02/10 01:57:07;;;;;;;11.83;3.50;;;11.30;99.90;;;;;;4898528;29;36724;-78
2024/02/10 01:59:36;;;;;;;8.17;2.93;;;11.30;99.90;;;;;;4915233;29;39165;-78
2024/02/10 02:04:39;;;;;;;10.13;2.63;;;11.30;99.90;;;;;;5048596;23;20065;-78
2024/02/10 02:07:10;;;;;;;6.72;2.65;;;11.30;99.90;;;;;;4916715;28;36091;-78
2024/02/10 02:09:37;;;;;;;13.40;3.25;;;11.20;99.90;;;;;;4926705;28;38135;-78
2024/02/10 02:12:07;;;;;;;11.13;2.60;;;11.20;99.90;;;;;;4918005;28;38741;-78
2024/02/10 02:14:37;;;;;;;7.40;3.07;;;11.20;99.90;;;;;;4939283;28;38287;-79
2024/02/10 02:17:06;;;;;;;11.95;2.67;;;11.20;99.90;;;;;;4924562;28;36431;-78
2024/02/10 02:19:33;;;;;;;7.23;2.53;;;11.30;99.90;;;;;;4938923;28;37743;-79
2024/02/10 02:22:02;;;;;;;7.43;3.15;;;11.30;99.90;;;;;;4919818;28;38576;-79
2024/02/10 02:24:29;;;;;;;7.30;2.60;;;11.30;99.90;;;;;;4919957;28;47767;-79
2024/02/10 02:26:56;;;;;;;9.60;3.07;;;11.30;99.90;;;;;;4919547;29;36106;-78
2024/02/10 02:29:24;;;;;;;9.90;3.20;;;11.30;99.90;;;;;;4917874;29;37880;-78
2024/02/10 02:31:59;;;;;;;10.85;3.55;;;11.30;99.90;;;;;;4921632;28;38949;-78
2024/02/10 02:34:27;;;;;;;6.87;2.63;;;11.20;99.90;;;;;;4923234;28;38716;-79
2024/02/10 02:36:53;;;;;;;11.93;2.87;;;11.20;99.90;;;;;;4920900;29;35848;-78
2024/02/10 02:39:22;;;;;;;7.57;3.00;;;11.30;99.90;;;;;;4920999;28;38826;-79
2024/02/10 02:41:49;;;;;;;10.50;2.73;;;11.30;99.90;;;;;;4922135;28;37719;-79
2024/02/10 02:44:15;;;;;;;10.00;3.03;;;11.20;99.90;;;;;;4934282;28;37680;-78
2024/02/10 02:46:42;;;;;;;9.77;3.23;;;11.20;99.90;;;;;;4922049;28;37552;-78
2024/02/10 02:49:09;;;;;;;6.53;2.77;;;11.20;99.90;;;;;;4930120;28;38120;-79
2024/02/10 02:51:35;;;;;;;11.83;3.20;;;11.20;99.90;;;;;;4920322;28;37720;-78
2024/02/10 02:54:02;;;;;;;6.80;2.88;;;11.10;99.90;;;;;;4928328;28;37533;-78
2024/02/10 02:56:28;;;;;;;12.33;3.37;;;11.10;99.90;;;;;;4917548;28;36182;-78
2024/02/10 02:58:55;;;;;;;10.37;3.47;;;11.10;99.90;;;;;;4920558;29;38086;-79
2024/02/10 03:01:22;;;;;;;9.37;3.10;;;11.00;99.90;;;;;;4917081;28;38589;-79
2024/02/10 03:03:51;;;;;;;10.83;2.97;;;11.00;99.90;;;;;;4917207;28;37589;-79
2024/02/10 03:06:20;;;;;;;9.23;3.60;;;11.00;99.90;;;;;;4918743;28;36298;-79
2024/02/10 03:08:47;;;;;;;13.03;3.80;;;11.00;99.90;;;;;;4917790;28;39263;-79
2024/02/10 03:11:18;;;;;;;10.57;3.60;;;11.00;99.90;;;;;;4918542;29;37572;-79
2024/02/10 03:13:47;;;;;;;10.47;3.77;;;11.00;99.90;;;;;;4923877;28;38211;-78
2024/02/10 03:16:19;;;;;;;11.47;4.00;;;10.90;99.90;;;;;;4917651;28;36670;-79
2024/02/10 03:18:46;;;;;;;12.30;3.92;;;10.90;99.90;;;;;;4911103;28;38048;-79
2024/02/10 03:21:14;;;;;;;10.60;4.00;;;10.90;99.90;;;;;;4931289;28;37954;-78
2024/02/10 03:23:40;;;;;;;11.10;4.40;;;10.90;99.90;;;;;;4921871;29;37441;-79
2024/02/10 03:26:07;;;;;;;11.47;3.87;;;10.90;99.90;;;;;;4921001;29;36850;-79
2024/02/10 03:28:33;;;;;;;10.67;4.63;;;10.90;99.90;;;;;;4919568;29;38805;-78
2024/02/10 03:31:01;;;;;;;11.03;3.80;;;10.80;99.90;;;;;;4933661;28;37431;-78
2024/02/10 03:33:30;;;;;;;9.57;4.03;;;10.80;99.90;;;;;;4915298;28;47310;-78
2024/02/10 03:35:57;;;;;;;10.90;4.20;;;10.80;99.90;;;;;;4919853;28;37040;-80
2024/02/10 03:38:23;;;;;;;7.63;4.00;;;10.70;99.90;;;;;;4920836;28;37532;-79
2024/02/10 03:40:50;;;;;;;9.90;4.33;;;10.70;99.90;;;;;;4918067;29;39773;-79
2024/02/10 03:43:17;;;;;;;9.47;3.67;;;10.80;99.90;;;;;;4919596;28;37811;-79
2024/02/10 03:45:44;;;;;;;11.87;4.30;;;10.80;99.90;;;;;;4921029;28;35925;-79
2024/02/10 03:48:11;;;;;;;12.50;3.83;;;10.80;99.90;;;;;;4919944;28;38929;-78
2024/02/10 03:50:37;;;;;;;12.33;4.37;;;10.80;99.90;;;;;;4923263;28;38232;-79
2024/02/10 03:53:03;;;;;;;7.90;3.23;;;10.80;99.90;;;;;;4920233;28;36723;-78
2024/02/10 03:55:29;;;;;;;10.53;3.70;;;10.80;99.90;;;;;;4919543;29;37698;-78
2024/02/10 03:57:59;;;;;;;10.83;3.90;;;10.80;99.90;;;;;;4919990;28;39261;-78
2024/02/10 04:00:26;;;;;;;13.47;3.97;;;10.90;99.90;;;;;;4919879;28;38530;-78
2024/02/10 04:02:53;;;;;;;9.00;3.10;;;10.90;99.90;;;;;;4923496;28;38241;-79
2024/02/10 04:05:19;;;;;;;12.37;3.97;;;10.90;99.90;;;;;;4915869;29;35780;-79
2024/02/10 04:07:49;;;;;;;12.37;3.30;;;10.90;99.90;;;;;;4920589;28;39285;-79
2024/02/10 04:10:16;;;;;;;7.40;3.60;;;10.90;99.90;;;;;;4933835;28;37308;-79
2024/02/10 04:12:42;;;;;;;9.30;3.63;;;10.90;99.90;;;;;;4923357;28;38711;-79
2024/02/10 04:15:10;;;;;;;9.87;3.50;;;10.90;99.90;;;;;;4919206;28;38819;-78
2024/02/10 04:17:36;;;;;;;9.23;3.50;;;10.90;99.90;;;;;;4922735;28;37751;-79
2024/02/10 04:20:03;;;;;;;13.43;3.27;;;10.90;99.90;;;;;;4924049;28;39180;-79
2024/02/10 04:22:29;;;;;;;7.63;2.70;;;10.90;99.90;;;;;;4938450;28;38804;-79
2024/02/10 04:24:57;;;;;;;12.83;3.60;;;10.80;99.90;;;;;;4923938;28;37458;-80
2024/02/10 04:27:24;;;;;;;11.03;3.70;;;10.80;99.90;;;;;;4929636;28;39554;-78
2024/02/10 04:29:50;;;;;;;8.57;3.40;;;10.80;99.90;;;;;;4923055;29;37027;-78
2024/02/10 04:32:16;;;;;;;8.13;3.43;;;10.80;99.90;;;;;;4917234;28;38221;-78
2024/02/10 04:34:44;;;;;;;7.63;3.23;;;10.80;99.90;;;;;;4937336;28;35132;-78
2024/02/10 04:37:10;;;;;;;11.00;3.90;;;10.80;99.90;;;;;;4934754;28;37850;-79
2024/02/10 04:39:37;;;;;;;14.13;4.00;;;10.80;99.90;;;;;;4926696;28;37187;-79
2024/02/10 04:42:05;;;;;;;10.83;4.00;;;10.80;99.90;;;;;;4927583;28;38391;-78
2024/02/10 04:44:31;;;;;;;10.13;3.43;;;10.80;99.90;;;;;;4926708;28;38222;-78
2024/02/10 04:46:58;;;;;;;10.73;3.60;;;10.80;99.90;;;;;;4924993;28;39219;-78
2024/02/10 04:49:27;;;;;;;9.80;4.00;;;10.70;99.90;;;;;;4930659;28;39841;-78
2024/02/10 04:51:53;;;;;;;14.73;4.30;;;10.70;99.90;;;;;;4941191;28;39638;-78
2024/02/10 04:54:19;;;;;;;10.43;3.57;;;10.70;99.90;;;;;;4938941;28;36070;-78
2024/02/10 04:56:45;;;;;;;13.50;4.30;;;10.70;99.90;;;;;;4923551;28;37336;-79
2024/02/10 04:59:17;;;;;;;9.77;3.67;;;10.70;99.90;;;;;;4920293;28;39078;-78
2024/02/10 05:01:43;;;;;;;6.85;3.05;;;10.70;99.90;;;;;;4923528;28;37956;-79
2024/02/10 05:04:14;;;;;;;5.93;3.40;;;10.70;99.90;;;;;;4920491;28;37828;-79
2024/02/10 05:06:42;;;;;;;13.37;3.57;;;10.70;99.90;;;;;;4924750;28;39554;-79
2024/02/10 05:09:13;;;;;;;10.10;4.27;;;10.70;99.90;;;;;;4915742;28;39729;-76
2024/02/10 05:11:41;;;;;;;8.87;3.30;;;10.70;99.90;;;;;;4912836;29;37284;-76
2024/02/10 05:14:10;;;;;;;9.47;4.00;;;10.70;99.90;;;;;;4911219;28;37047;-76
2024/02/10 05:16:37;;;;;;;9.55;3.63;;;10.70;99.90;;;;;;4913410;28;39902;-76
2024/02/10 05:19:04;;;;;;;8.37;3.63;;;10.70;99.90;;;;;;4911662;28;39313;-75
2024/02/10 05:21:33;;;;;;;7.67;3.10;;;10.70;99.90;;;;;;4913546;28;38496;-76
2024/02/10 05:24:10;;;;;;;11.00;3.63;;;10.70;99.90;;;;;;4912165;28;36010;-75
2024/02/10 05:26:38;;;;;;;8.35;3.38;;;10.70;99.90;;;;;;4907826;28;48257;-76
2024/02/10 05:29:10;;;;;;;10.27;3.43;;;10.70;99.90;;;;;;4926893;28;38216;-76
2024/02/10 05:31:37;;;;;;;10.55;3.35;;;10.70;99.90;;;;;;4911101;29;38789;-77
2024/02/10 05:34:04;;;;;;;10.45;3.72;;;10.70;99.90;;;;;;4908630;28;38471;-76
2024/02/10 05:36:36;;;;;;;10.87;3.57;;;10.70;99.90;;;;;;4908903;28;37027;-76
2024/02/10 05:39:03;;;;;;;;;;;10.70;99.90;;;;;;4911701;28;38779;-76
2024/02/10 05:41:30;;;;;;;10.43;3.33;;;10.70;99.90;;;;;;4906438;28;38511;-77
2024/02/10 05:43:56;;;;;;;7.78;3.08;;;10.70;99.90;;;;;;4902297;29;35571;-76
2024/02/10 05:46:22;;;;;;;9.43;3.53;;;10.70;99.90;;;;;;4905652;28;37992;-77
2024/02/10 05:48:50;;;;;;;11.20;3.60;;;10.70;99.90;;;;;;4907367;29;38640;-76
2024/02/10 05:51:20;;;;;;;6.53;3.13;;;10.60;99.90;;;;;;4920037;28;36871;-77
2024/02/10 05:53:46;;;;;;;9.70;3.30;;;10.60;99.90;;;;;;4909341;28;37361;-76
2024/02/10 05:56:15;;;;;;;5.47;3.30;;;10.60;99.90;;;;;;4921014;28;37702;-77
2024/02/10 05:58:45;;;;;;;9.63;3.20;;;10.60;99.90;;;;;;4906342;29;38645;-77
2024/02/10 06:01:13;;;;;;;10.00;3.50;;;10.50;99.90;;;;;;4893614;28;39266;-77
2024/02/10 06:03:42;;;;;;;7.13;3.23;;;10.50;99.90;;;;;;4903073;29;37771;-77
2024/02/10 06:06:08;;;;;;;8.40;3.50;;;10.40;99.90;;;;;;4922470;28;39116;-76
2024/02/10 06:08:36;;;;;;;10.73;3.70;;;10.40;99.90;;;;;;4911719;28;38520;-76
2024/02/10 06:11:03;;;;;;;8.23;3.20;;;10.30;99.90;;;;;;4910714;28;38605;-77
2024/02/10 06:13:32;;;;;;;7.13;3.30;;;10.30;99.90;;;;;;4907800;28;36388;-77
2024/02/10 06:15:59;;;;;;;9.57;3.67;;;10.30;99.90;;;;;;4922931;28;40650;-77
2024/02/10 06:18:30;;;;;;;11.57;3.40;;;10.30;99.90;;;;;;4908740;28;39984;-76
2024/02/10 06:20:59;;;;;;;7.90;3.43;;;10.30;99.90;;;;;;4923423;28;36957;-76
2024/02/10 06:23:30;;;;;;;9.17;3.30;;;10.30;99.90;;;;;;4912033;28;37313;-76
2024/02/10 06:25:56;;;;;;;10.00;3.00;;;10.30;99.90;;;;;;4907475;28;39639;-76
2024/02/10 06:28:23;;;;;;;6.27;2.90;;;10.30;99.90;;;;;;4904214;28;38697;-76
2024/02/10 06:30:50;;;;;;;5.63;3.13;;;10.40;99.90;;;;;;4906092;28;37990;-76
2024/02/10 06:33:16;;;;;;;9.90;3.57;;;10.40;99.90;;;;;;4909600;28;37941;-76
2024/02/10 06:35:47;;;;;;;7.17;3.20;;;10.40;99.90;;;;;;4908858;28;40028;-76
2024/02/10 06:38:15;;;;;;;10.70;3.27;;;10.40;99.90;;;;;;4907816;28;38353;-76
2024/02/10 06:40:41;;;;;;;9.47;3.10;;;10.40;99.90;;;;;;4910538;28;37847;-76
2024/02/10 06:43:12;;;;;;;6.13;3.10;;;10.40;99.90;;;;;;4907300;28;37489;-76
2024/02/10 06:45:42;;;;;;;8.00;3.37;;;10.40;99.90;;;;;;4909678;28;39502;-76
2024/02/10 06:48:11;;;;;;;8.33;3.13;;;10.40;99.90;;;;;;4907893;28;39700;-77
2024/02/10 06:50:38;;;;;;;8.27;3.27;;;10.40;99.90;;;;;;4906533;28;38898;-76
2024/02/10 06:53:06;;;;;;;12.63;4.37;;;10.40;99.90;;;;;;4906478;28;38996;-77
2024/02/10 06:55:33;;;;;;;9.67;3.20;;;10.40;99.90;;;;;;4906777;28;39023;-76
2024/02/10 06:58:02;;;;;;;9.53;3.00;;;10.40;99.90;;;;;;4908156;28;38815;-77
2024/02/10 07:00:47;;;;;;;6.50;3.00;;;10.40;99.90;;;;;;4905296;28;47519;-76
2024/02/10 07:03:20;;;;;;;7.90;3.47;;;10.40;99.90;;;;;;4901954;28;36303;-77
2024/02/10 07:05:49;;;;;;;10.37;3.23;;;10.40;99.90;;;;;;4909472;28;38263;-77
2024/02/10 07:08:16;;;;;;;7.13;3.00;;;10.30;99.90;;;;;;4906054;28;40192;-76
2024/02/10 07:10:46;;;;;;;6.70;3.10;;;10.30;99.90;;;;;;4912018;28;38534;-77
2024/02/10 07:13:12;;;;;;;7.63;3.37;;;10.30;99.90;;;;;;4902973;29;34481;-77
2024/02/10 07:15:38;;;;;;;6.83;3.47;;;10.30;99.90;;;;;;4907115;28;39615;-76
2024/02/10 07:18:09;;;;;;;9.70;3.23;;;10.30;99.90;;;;;;4907554;29;36282;-77
2024/02/10 07:20:35;;;;;;;5.27;3.57;;;10.30;99.90;;;;;;4910024;28;37892;-76
2024/02/10 07:23:05;;;;;;;8.00;3.53;;;10.30;99.90;;;;;;4912331;28;38013;-76
2024/02/10 07:25:33;;;;;;;10.00;3.73;;;10.30;99.90;;;;;;4907864;28;39697;-75
2024/02/10 07:28:03;;;;;;;5.63;3.03;;;10.30;99.90;;;;;;4907111;28;38583;-76
2024/02/10 07:30:31;;;;;;;9.23;3.63;;;10.20;99.90;;;;;;4918180;28;47225;-76
2024/02/10 07:33:03;;;;;;;7.50;3.53;;;10.10;99.90;;;;;;4907423;28;37828;-76
2024/02/10 07:35:31;;;;;;;8.57;3.88;;;10.10;99.90;;;;;;4903393;28;45981;-77
2024/02/10 07:37:58;;;;;;;9.07;4.00;;;10.00;99.90;;;;;;4901007;28;38208;-76
2024/02/10 07:40:24;;;;;;;10.20;3.67;;;10.00;99.90;;;;;;4916931;28;37797;-76
2024/02/10 07:42:53;;;;;;;14.17;4.07;;;10.00;99.90;;;;;;4922044;28;36193;-77
2024/02/10 07:45:22;;;;;;;8.80;3.70;;;10.00;99.90;;;;;;4905275;28;37947;-77
2024/02/10 07:47:55;;;;;;;8.93;3.80;;;10.00;99.90;;;;;;4904700;28;37510;-76
2024/02/10 07:50:21;;;;;;;6.23;3.87;;;10.00;99.90;;;;;;4921948;28;38124;-77
2024/02/10 07:52:49;;;;;;;6.50;4.07;;;10.00;99.90;;;;;;4907632;28;37746;-77
2024/02/10 07:55:16;;;;;;;7.07;4.30;;;10.00;99.90;;;;;;4907324;28;37871;-77
2024/02/10 07:57:43;;;;;;;4.77;3.80;;;10.00;99.90;;;;;;4910099;28;38834;-77
2024/02/10 08:00:16;;;;;;;9.57;5.20;;;10.00;99.90;;;;;;4909790;28;38952;-77
2024/02/10 08:02:43;;;;;;;9.13;3.60;;;9.90;99.90;;;;;;4905925;28;36099;-78
2024/02/10 08:05:10;;;;;;;8.50;4.27;;;9.90;99.90;;;;;;4914605;28;38648;-77
2024/02/10 08:07:37;;;;;;;8.03;4.20;;;9.90;99.90;;;;;;4915333;28;38901;-78
2024/02/10 08:10:06;;;;;;;9.83;4.10;;;9.90;99.90;;;;;;4921861;28;37211;-78
2024/02/10 08:12:33;;;;;;;11.37;4.50;;;9.90;99.90;;;;;;4903293;28;47340;-77
2024/02/10 08:14:59;;;;;;;7.63;4.17;;;9.90;99.90;;;;;;4905769;28;37576;-78
2024/02/10 08:17:30;;;;;;;7.30;4.73;;;9.90;99.90;;;;;;4903798;28;39439;-79
2024/02/10 08:20:02;;;;;;;9.30;4.97;;;9.90;99.90;;;;;;4921537;28;38025;-78
2024/02/10 08:22:30;;;;;;;14.15;5.90;;;9.90;99.90;;;;;;4900708;28;36384;-76
2024/02/10 08:24:59;;;;;;;8.33;4.53;;;10.00;99.90;;;;;;4920538;28;37583;-78
2024/02/10 08:27:26;;;;;;;10.17;5.27;;;10.00;99.90;;;;;;4907530;28;37305;-76
2024/02/10 08:29:53;;;;;;;7.27;4.30;;;10.00;99.90;;;;;;4904528;29;37979;-76
2024/02/10 08:32:22;;;;;;;7.10;4.37;;;10.10;99.90;;;;;;4910346;28;35687;-77
2024/02/10 08:34:51;;;;;;;10.00;4.80;;;10.10;99.90;;;;;;4905024;29;37751;-77
2024/02/10 08:37:17;;;;;;;8.57;5.13;;;10.20;99.90;;;;;;4903767;28;39501;-77
2024/02/10 08:39:44;;;;;;;9.37;4.60;;;10.20;99.90;;;;;;4918298;28;37222;-78
2024/02/10 08:42:14;;;;;;;9.87;3.67;;;10.30;99.90;;;;;;4909012;28;35870;-77
2024/02/10 08:44:41;;;;;;;9.00;4.40;;;10.30;99.90;;;;;;4910641;28;38853;-77
2024/02/10 08:47:07;;;;;;;10.33;4.20;;;10.40;99.90;;;;;;4907069;28;38481;-77
2024/02/10 08:49:37;;;;;;;7.77;3.87;;;10.40;99.90;;;;;;4926895;28;37984;-77
2024/02/10 08:52:05;;;;;;;6.03;3.63;;;10.40;99.90;;;;;;4919531;28;37325;-77
2024/02/10 08:54:31;;;;;;;7.60;3.60;;;10.50;99.90;;;;;;4909822;28;37759;-77
2024/02/10 08:57:01;;;;;;;5.10;3.75;;;10.50;99.90;;;;;;4913182;28;38979;-77
2024/02/10 08:59:35;;;;;;;6.20;3.40;;;10.60;99.90;;;;;;4915348;28;47166;-78
2024/02/10 09:02:02;;;;;;;7.30;3.80;;;10.60;99.90;;;;;;4911379;28;36147;-77
2024/02/10 09:04:29;;;;;;;7.57;3.30;;;10.60;99.90;;;;;;4918490;28;46666;-77
2024/02/10 09:06:55;;;;;;;9.48;3.50;;;10.60;99.90;;;;;;4930175;28;37255;-77
2024/02/10 09:09:21;;;;;;;5.83;3.60;;;10.60;99.90;;;;;;4920282;28;38082;-77
2024/02/10 09:11:48;;;;;;;5.13;3.22;;;10.60;99.90;;;;;;4930860;28;36230;-76
2024/02/10 09:14:14;;;;;;;6.10;3.40;;;10.50;99.90;;;;;;4919453;28;38602;-77
2024/02/10 09:16:41;;;;;;;5.53;3.63;;;10.60;99.90;;;;;;4911339;28;38127;-77
2024/02/10 09:19:07;;;;;;;8.83;4.27;;;10.60;99.90;;;;;;4910975;28;37194;-77
2024/02/10 09:21:33;;;;;;;5.03;3.70;;;10.60;99.90;;;;;;4909503;28;36928;-77
2024/02/10 09:23:59;;;;;;;8.53;3.63;;;10.70;99.90;;;;;;4911073;28;38962;-78
2024/02/10 09:26:26;;;;;;;8.65;3.30;;;10.80;99.90;;;;;;4908599;28;38348;-77
2024/02/10 09:28:55;;;;;;;9.55;3.50;;;10.90;99.90;;;;;;4910180;29;36910;-78
2024/02/10 09:31:24;;;;;;;9.05;3.70;;;10.90;99.90;;;;;;4912572;28;37826;-77
2024/02/10 09:33:50;;;;;;;7.28;4.15;;;11.00;99.90;;;;;;4915375;28;38701;-78
2024/02/10 09:36:17;;;;;;;8.00;3.30;;;11.10;99.90;;;;;;4914680;28;38646;-79
2024/02/10 09:38:44;;;;;;;8.10;2.92;;;11.10;99.90;;;;;;4912822;29;37635;-78
2024/02/10 09:41:11;;;;;;;6.72;3.28;;;11.20;99.90;;;;;;4907206;28;36902;-78
2024/02/10 09:43:39;;;;;;;6.85;3.45;;;11.30;99.90;;;;;;4905769;29;38466;-77
2024/02/10 09:46:06;;;;;;;5.93;3.47;;;11.20;99.90;;;;;;4908596;28;37397;-77
2024/02/10 09:48:40;;;;;;;5.72;3.70;;;11.30;99.90;;;;;;4913770;29;37094;-78
2024/02/10 09:51:06;;;;;;;5.97;3.30;;;11.30;99.90;;;;;;4910840;28;36460;-78
2024/02/10 09:53:33;;;;;;;10.95;4.15;;;11.40;99.90;;;;;;4912022;28;38754;-77
2024/02/10 09:56:00;;;;;;;6.55;3.97;;;11.40;99.90;;;;;;4906780;28;37343;-77
2024/02/10 09:58:28;;;;;;;6.20;3.13;;;11.40;99.90;;;;;;4904614;28;47790;-77
2024/02/10 10:00:55;;;;;;;4.25;2.95;;;11.40;99.90;;;;;;4903385;28;36896;-77
2024/02/10 10:03:22;;;;;;;8.07;3.28;;;11.30;99.90;;;;;;4905948;28;37946;-77
2024/02/10 10:05:50;;;;;;;5.78;3.08;;;11.40;99.90;;;;;;4901657;29;38078;-77
2024/02/10 10:08:22;;;;;;;5.03;3.28;;;11.40;99.90;;;;;;4904908;29;38196;-77
2024/02/10 10:10:50;;;;;;;8.90;3.08;;;11.50;99.90;;;;;;4895563;28;37102;-77
2024/02/10 10:13:16;;;;;;;6.95;3.30;;;11.60;99.90;;;;;;4899361;28;40272;-78
2024/02/10 10:15:43;;;;;;;6.78;3.70;;;11.60;99.90;;;;;;4907013;29;36836;-78
2024/02/10 10:18:14;;;;;;;8.82;3.50;;;11.60;99.90;;;;;;4909712;28;37901;-78
2024/02/10 10:20:43;;;;;;;4.60;3.10;;;11.80;99.90;;;;;;4908121;29;37013;-77
2024/02/10 10:23:09;;;;;;;6.90;3.42;;;11.80;99.90;;;;;;4922024;28;37734;-77
2024/02/10 10:25:36;;;;;;;6.10;3.30;;;11.80;99.90;;;;;;4908469;28;38247;-78
2024/02/10 10:28:03;;;;;;;7.93;3.53;;;11.90;99.90;;;;;;4905995;28;37924;-77
2024/02/10 10:30:33;;;;;;;7.53;4.20;;;11.90;99.90;;;;;;4904443;28;37288;-77
2024/02/10 10:33:01;;;;;;;5.78;3.42;;;12.10;99.90;;;;;;4906355;29;39070;-76
2024/02/10 10:35:27;;;;;;;6.43;3.03;;;12.10;99.90;;;;;;4916214;28;37655;-77
2024/02/10 10:37:55;;;;;;;5.82;3.13;;;12.20;99.90;;;;;;4916363;28;39032;-77
2024/02/10 10:40:22;;;;;;;4.90;3.10;;;12.30;99.90;;;;;;4914956;28;35982;-77
2024/02/10 10:42:50;;;;;;;8.27;2.97;;;12.30;99.90;;;;;;4911024;28;40215;-78
2024/02/10 10:45:17;;;;;;;7.07;3.00;;;12.30;99.90;;;;;;4907731;28;39838;-77
2024/02/10 10:47:45;;;;;;;5.97;2.50;;;12.40;99.90;;;;;;4906354;28;38568;-78
2024/02/10 10:50:11;;;;;;;5.80;3.25;;;12.50;99.90;;;;;;4908753;28;37413;-77
2024/02/10 10:52:41;;;;;;;6.60;3.22;;;12.60;99.90;;;;;;4905384;28;38240;-77
2024/02/10 10:55:10;;;;;;;6.32;3.47;;;12.70;99.90;;;;;;4907253;28;39309;-77
2024/02/10 10:57:39;;;;;;;7.97;3.20;;;12.70;99.90;;;;;;4908317;28;40097;-77
2024/02/10 11:00:15;;;;;;;4.55;3.05;;;12.80;99.90;;;;;;4912178;29;37987;-77
2024/02/10 11:02:43;;;;;;;8.88;3.70;;;12.80;99.90;;;;;;4911647;28;38680;-77
2024/02/10 11:05:12;;;;;;;6.65;2.85;;;12.90;99.90;;;;;;4911651;28;39869;-77
2024/02/10 11:07:48;;;;;;;7.07;3.35;;;12.90;99.90;;;;;;4916671;28;37971;-77
2024/02/10 11:10:38;;;;;;;6.90;2.92;;;12.80;99.90;;;;;;4928932;28;35916;-77
2024/02/10 11:13:06;;;;;;;4.82;2.70;;;12.90;99.90;;;;;;4908595;28;38385;-77
2024/02/10 11:15:40;;;;;;;3.95;3.17;;;13.00;99.90;;;;;;4912193;28;40092;-76
2024/02/10 11:18:17;;;;;;;4.50;3.28;;;12.80;99.90;;;;;;4906030;28;37801;-77
2024/02/10 11:20:43;;;;;;;4.47;2.85;;;12.60;99.90;;;;;;4905355;28;37396;-76
2024/02/10 11:23:22;;;;;;;6.40;4.20;;;12.60;99.90;;;;;;4910834;28;39863;-77
2024/02/10 11:25:52;;;;;;;8.68;4.43;;;12.70;99.90;;;;;;4906534;28;37483;-76
2024/02/10 11:28:23;;;;;;;5.53;3.30;;;12.70;99.90;;;;;;4923892;28;36879;-77
2024/02/10 11:30:51;;;;;;;10.73;3.35;;;12.80;99.90;;;;;;4908689;28;37708;-77
2024/02/10 11:33:22;;;;;;;6.75;3.47;;;12.80;99.90;;;;;;4920773;28;39167;-76
2024/02/10 11:35:53;;;;;;;9.68;4.15;;;12.70;99.90;;;;;;4905096;28;37761;-77
2024/02/10 11:38:20;;;;;;;10.32;3.90;;;12.80;99.90;;;;;;4903537;28;38229;-77
2024/02/10 11:40:47;;;;;;;6.28;2.95;;;12.90;99.90;;;;;;4910602;28;36325;-76
2024/02/10 11:43:14;;;;;;;5.32;3.70;;;12.90;99.90;;;;;;4900175;29;37803;-76
2024/02/10 11:45:41;;;;;;;8.27;4.30;;;12.90;99.90;;;;;;4906476;28;38257;-79
2024/02/10 11:48:10;;;;;;;6.80;3.75;;;12.70;99.90;;;;;;4903052;28;37163;-76
2024/02/10 11:50:44;;;;;;;6.35;3.72;;;12.70;99.90;;;;;;4905014;28;38192;-77
2024/02/10 11:53:15;;;;;;;6.10;3.88;;;12.70;99.90;;;;;;4903490;28;38663;-77
2024/02/10 11:55:43;;;;;;;7.28;4.65;;;12.80;99.90;;;;;;4900048;28;37523;-77
2024/02/10 11:58:10;;;;;;;7.47;3.47;;;12.70;99.90;;;;;;4904244;28;37871;-75
2024/02/10 12:00:37;;;;;;;7.85;4.20;;;12.90;99.90;;;;;;4907380;28;37831;-77
2024/02/10 12:03:05;;;;;;;5.93;4.25;;;13.00;99.90;;;;;;4904009;28;40602;-75
2024/02/10 12:05:34;;;;;;;10.15;4.00;;;13.20;99.90;;;;;;4905397;29;37018;-75
2024/02/10 12:08:07;;;;;;;6.65;3.88;;;13.20;99.90;;;;;;4906536;28;39346;-75
2024/02/10 12:10:39;;;;;;;;;;;13.40;99.90;;;;;;4906106;28;48868;-76
2024/02/10 12:13:09;;;;;;;7.72;3.92;;;13.40;99.90;;;;;;4902618;28;39183;-75
2024/02/10 12:15:35;;;;;;;5.80;4.03;;;13.40;99.90;;;;;;4904495;28;37159;-76
2024/02/10 12:18:01;;;;;;;6.35;3.78;;;13.30;99.90;;;;;;4922516;28;40416;-76
2024/02/10 12:20:29;;;;;;;4.88;3.80;;;13.20;99.90;;;;;;4907006;29;37228;-75
2024/02/10 12:22:56;;;;;;;5.15;3.63;;;13.30;99.90;;;;;;4907199;28;38171;-76
2024/02/10 12:25:25;;;;;;;9.07;4.45;;;13.40;99.90;;;;;;4898414;28;39912;-76
2024/02/10 12:27:51;;;;;;;6.15;3.80;;;13.50;99.90;;;;;;4904920;28;38084;-75
2024/02/10 12:30:19;;;;;;;8.40;4.00;;;13.50;99.90;;;;;;4902125;28;37107;-76
2024/02/10 12:32:45;;;;;;;8.32;4.15;;;13.60;99.90;;;;;;4906669;28;37918;-76
2024/02/10 12:35:16;;;;;;;7.68;3.65;;;13.70;99.90;;;;;;4900695;28;38506;-77
2024/02/10 12:37:49;;;;;;;6.97;4.03;;;13.70;99.00;;;;;;4906846;29;38236;-77
2024/02/10 12:40:15;;;;;;;;;;;13.70;97.40;;;;;;4910536;28;36474;-77
2024/02/10 12:42:44;;;;;;;5.05;3.80;;;13.70;95.60;;;;;;4918556;28;38161;-75
2024/02/10 12:45:16;;;;;;;5.82;4.07;;;13.90;97.00;;;;;;4897223;28;38969;-77
2024/02/10 12:47:45;;;;;;;7.80;4.53;;;14.00;91.50;;;;;;4905729;28;38526;-77
2024/02/10 12:50:12;;;;;;;7.50;3.90;;;13.90;91.20;;;;;;4916065;28;36714;-77
2024/02/10 12:52:45;;;;;;;6.43;4.40;;;14.20;98.10;;;;;;4906067;29;40104;-79